createdAt,value
2023-02-26T00:01:58.888Z,3.05
2023-02-26T00:05:00.858Z,3.45
2023-02-26T00:08:06.038Z,4.97
2023-02-26T00:11:12.398Z,3.53
2023-02-26T00:14:18.104Z,8.18
2023-02-26T00:17:38.199Z,4.80
2023-02-26T00:20:41.134Z,4.57
2023-02-26T00:23:43.565Z,2.83
2023-02-26T00:26:45.829Z,3.73
2023-02-26T00:29:51.454Z,5.60
2023-02-26T00:32:54.335Z,4.07
2023-02-26T00:36:36.132Z,4.47
2023-02-26T00:39:52.468Z,3.00
2023-02-26T00:42:54.874Z,2.87
2023-02-26T00:46:19.508Z,5.10
2023-02-26T00:49:55.687Z,4.05
2023-02-26T00:53:26.014Z,4.22
2023-02-26T00:56:30.938Z,2.88
2023-02-26T00:59:33.088Z,4.20
2023-02-26T01:02:37.507Z,3.30
2023-02-26T01:05:40.959Z,4.38
2023-02-26T01:08:45.910Z,5.10
2023-02-26T01:11:48.273Z,4.20
2023-02-26T01:14:52.425Z,4.73
2023-02-26T01:18:09.826Z,3.72
2023-02-26T01:21:18.120Z,3.88
2023-02-26T01:24:24.606Z,2.75
2023-02-26T01:27:26.724Z,5.05
2023-02-26T01:30:29.177Z,3.27
2023-02-26T01:33:58.766Z,1.45
2023-02-26T01:37:07.186Z,2.97
2023-02-26T01:40:28.557Z,4.10
2023-02-26T01:43:46.773Z,3.90
2023-02-26T01:47:11.067Z,3.80
2023-02-26T01:50:17.642Z,2.42
2023-02-26T01:53:24.725Z,3.85
2023-02-26T01:56:27.113Z,3.10
2023-02-26T01:59:29.463Z,5.13
2023-02-26T02:02:34.705Z,4.00
2023-02-26T02:05:47.402Z,4.35
2023-02-26T02:08:49.717Z,3.35
2023-02-26T02:12:08.632Z,3.55
2023-02-26T02:15:24.781Z,4.93
2023-02-26T02:18:41.814Z,3.93
2023-02-26T02:21:54.285Z,3.50
2023-02-26T02:25:33.802Z,5.03
2023-02-26T02:28:53.738Z,3.83
2023-02-26T02:32:35.786Z,3.90
2023-02-26T02:35:44.755Z,3.27
2023-02-26T02:38:53.378Z,3.40
2023-02-26T02:42:07.366Z,4.10
2023-02-26T02:45:19.203Z,4.75
2023-02-26T02:48:32.259Z,3.80
2023-02-26T02:51:52.402Z,4.03
2023-02-26T02:55:09.974Z,3.53
2023-02-26T02:58:18.772Z,5.03
2023-02-26T03:01:24.307Z,5.15
2023-02-26T03:04:26.343Z,2.60
2023-02-26T03:07:33.364Z,6.17
2023-02-26T03:10:37.272Z,5.65
2023-02-26T03:13:42.033Z,5.43
2023-02-26T03:17:14.599Z,3.35
2023-02-26T03:20:26.782Z,6.28
2023-02-26T03:23:35.641Z,6.50
2023-02-26T03:26:48.279Z,5.05
2023-02-26T03:29:59.380Z,4.88
2023-02-26T03:33:06.901Z,4.70
2023-02-26T03:36:17.550Z,5.30
2023-02-26T03:39:30.005Z,5.73
2023-02-26T03:42:41.719Z,4.45
2023-02-26T03:45:50.467Z,4.20
2023-02-26T03:48:55.547Z,6.57
2023-02-26T03:52:01.583Z,4.25
2023-02-26T03:55:31.760Z,5.03
2023-02-26T03:58:35.196Z,5.43
2023-02-26T04:02:03.119Z,4.72
2023-02-26T04:05:27.782Z,6.20
2023-02-26T04:08:30.014Z,5.53
2023-02-26T04:11:33.347Z,5.13
2023-02-26T04:14:35.413Z,6.32
2023-02-26T04:17:38.647Z,4.63
2023-02-26T04:20:43.642Z,4.93
2023-02-26T04:23:45.757Z,6.63
2023-02-26T04:26:48.368Z,5.33
2023-02-26T04:29:52.915Z,4.82
2023-02-26T04:32:56.705Z,4.55
2023-02-26T04:35:58.916Z,4.43
2023-02-26T04:39:02.832Z,3.75
2023-02-26T04:42:05.084Z,4.70
2023-02-26T04:45:10.619Z,4.88
2023-02-26T04:48:17.159Z,6.68
2023-02-26T04:51:19.670Z,5.97
2023-02-26T04:54:21.826Z,4.95
2023-02-26T04:57:23.880Z,4.57
2023-02-26T05:00:26.433Z,5.60
2023-02-26T05:03:28.605Z,8.15
2023-02-26T05:06:30.700Z,5.30
2023-02-26T05:09:35.098Z,5.90
2023-02-26T05:12:37.131Z,6.17
2023-02-26T05:15:39.582Z,5.38
2023-02-26T05:18:42.385Z,4.57
2023-02-26T05:21:44.540Z,6.32
2023-02-26T05:24:47.919Z,6.72
2023-02-26T05:27:50.542Z,6.10
2023-02-26T05:30:54.459Z,6.28
2023-02-26T05:33:59.034Z,6.07
2023-02-26T05:37:00.943Z,4.68
2023-02-26T05:40:06.585Z,5.68
2023-02-26T05:43:09.173Z,6.80
2023-02-26T05:46:11.650Z,5.47
2023-02-26T05:49:22.593Z,5.93
2023-02-26T05:52:25.626Z,6.35
2023-02-26T05:55:32.158Z,6.55
2023-02-26T05:58:35.990Z,7.07
2023-02-26T06:01:38.615Z,6.18
2023-02-26T06:04:40.995Z,4.95
2023-02-26T06:07:42.925Z,5.40
2023-02-26T06:10:45.016Z,6.32
2023-02-26T06:13:47.320Z,5.93
2023-02-26T06:16:49.304Z,6.22
2023-02-26T06:19:52.343Z,6.00
2023-02-26T06:22:54.599Z,7.28
2023-02-26T06:26:00.082Z,5.57
2023-02-26T06:29:02.483Z,5.10
2023-02-26T06:32:06.555Z,5.82
2023-02-26T06:35:08.960Z,7.90
2023-02-26T06:38:11.775Z,5.80
2023-02-26T06:41:14.133Z,7.10
2023-02-26T06:44:17.404Z,7.63
2023-02-26T06:47:19.380Z,5.70
2023-02-26T06:50:23.057Z,7.80
2023-02-26T06:53:25.759Z,6.45
2023-02-26T06:56:28.515Z,5.88
2023-02-26T06:59:30.781Z,5.90
2023-02-26T07:02:32.986Z,6.10
2023-02-26T07:05:35.394Z,5.70
2023-02-26T07:08:37.379Z,6.72
2023-02-26T07:11:41.252Z,5.57
2023-02-26T07:14:43.889Z,6.43
2023-02-26T07:17:45.860Z,6.30
2023-02-26T07:20:50.018Z,5.35
2023-02-26T07:23:51.762Z,5.93
2023-02-26T07:26:53.708Z,5.72
2023-02-26T07:29:56.202Z,5.20
2023-02-26T07:32:58.425Z,6.30
2023-02-26T07:36:00.989Z,7.07
2023-02-26T07:39:03.096Z,5.45
2023-02-26T07:42:05.309Z,4.07
2023-02-26T07:45:08.366Z,5.67
2023-02-26T07:48:10.433Z,6.15
2023-02-26T07:51:12.411Z,3.40
2023-02-26T07:54:14.519Z,4.82
2023-02-26T07:57:18.463Z,3.50
2023-02-26T08:00:21.837Z,5.93
2023-02-26T08:03:23.958Z,5.22
2023-02-26T08:06:26.410Z,4.82
2023-02-26T08:09:31.470Z,4.68
2023-02-26T08:12:34.812Z,3.72
2023-02-26T08:15:36.673Z,2.73
2023-02-26T08:18:38.705Z,4.07
2023-02-26T08:21:43.528Z,4.20
2023-02-26T08:24:45.609Z,4.13
2023-02-26T08:27:48.204Z,4.22
2023-02-26T08:30:54.199Z,4.63
2023-02-26T08:33:58.368Z,4.63
2023-02-26T08:37:00.236Z,5.15
2023-02-26T08:40:05.881Z,4.30
2023-02-26T08:43:12.597Z,4.53
2023-02-26T08:46:14.511Z,5.07
2023-02-26T08:49:16.817Z,4.93
2023-02-26T08:52:19.315Z,6.18
2023-02-26T08:55:25.518Z,5.75
2023-02-26T08:58:27.880Z,2.90
2023-02-26T09:01:31.509Z,2.63
2023-02-26T09:04:34.033Z,4.95
2023-02-26T09:07:36.225Z,4.72
2023-02-26T09:10:41.508Z,4.75
2023-02-26T09:13:43.425Z,7.07
2023-02-26T09:16:46.409Z,3.97
2023-02-26T09:19:48.482Z,6.18
2023-02-26T09:22:50.684Z,4.30
2023-02-26T09:25:56.928Z,4.50
2023-02-26T09:28:59.390Z,5.65
2023-02-26T09:32:03.621Z,3.70
2023-02-26T09:35:09.382Z,4.40
2023-02-26T09:38:11.383Z,5.80
2023-02-26T09:41:22.528Z,3.53
2023-02-26T09:44:32.869Z,5.75
2023-02-26T09:47:48.760Z,5.07
2023-02-26T09:50:53.761Z,4.25
2023-02-26T09:53:58.945Z,6.18
2023-02-26T09:57:01.249Z,3.55
2023-02-26T10:00:34.305Z,4.47
2023-02-26T10:03:56.381Z,5.07
2023-02-26T10:07:11.454Z,4.57
2023-02-26T10:10:33.685Z,4.40
2023-02-26T10:14:04.933Z,4.50
2023-02-26T10:17:23.110Z,3.08
2023-02-26T10:20:36.742Z,2.97
2023-02-26T10:23:50.503Z,3.20
2023-02-26T10:27:05.536Z,3.05
2023-02-26T10:30:19.967Z,4.18
2023-02-26T10:33:39.323Z,3.85
2023-02-26T10:37:07.145Z,4.07
2023-02-26T10:40:27.252Z,3.90
2023-02-26T10:43:40.643Z,3.20
2023-02-26T10:47:16.859Z,4.28
2023-02-26T10:50:24.839Z,3.63
2023-02-26T10:53:32.063Z,4.03
2023-02-26T10:56:34.713Z,5.30
2023-02-26T10:59:39.436Z,5.68
2023-02-26T11:02:46.019Z,6.00
2023-02-26T11:05:49.175Z,4.60
2023-02-26T11:08:55.969Z,4.27
2023-02-26T11:12:15.737Z,5.28
2023-02-26T11:15:21.538Z,8.13
2023-02-26T11:18:30.165Z,5.05
2023-02-26T11:21:39.847Z,6.50
2023-02-26T11:24:47.848Z,3.47
2023-02-26T11:27:55.455Z,4.97
2023-02-26T11:31:01.913Z,4.93
2023-02-26T11:34:08.569Z,5.93
2023-02-26T11:37:12.150Z,7.00
2023-02-26T11:40:24.540Z,4.93
2023-02-26T11:43:42.759Z,5.88
2023-02-26T11:46:54.225Z,4.00
2023-02-26T11:50:01.973Z,6.38
2023-02-26T11:53:45.303Z,5.38
2023-02-26T11:56:47.817Z,7.13
2023-02-26T11:59:53.240Z,5.07
2023-02-26T12:03:17.848Z,4.20
2023-02-26T12:06:24.909Z,5.70
2023-02-26T12:09:28.657Z,4.15
2023-02-26T12:13:06.477Z,6.87
2023-02-26T12:16:34.845Z,6.25
2023-02-26T12:20:20.409Z,6.68
2023-02-26T12:24:10.433Z,6.75
2023-02-26T12:27:30.825Z,5.65
2023-02-26T12:30:44.718Z,4.20
2023-02-26T12:33:46.546Z,6.30
2023-02-26T12:37:06.776Z,5.22
2023-02-26T12:40:30.853Z,5.72
2023-02-26T12:43:55.903Z,5.78
2023-02-26T12:47:17.269Z,5.23
2023-02-26T12:50:45.813Z,6.93
2023-02-26T12:54:07.721Z,7.35
2023-02-26T12:57:29.150Z,7.55
2023-02-26T13:01:03.383Z,6.63
2023-02-26T13:04:17.918Z,7.33
2023-02-26T13:07:34.808Z,6.30
2023-02-26T13:10:51.266Z,7.65
2023-02-26T13:14:17.230Z,7.07
2023-02-26T13:17:39.721Z,7.10
2023-02-26T13:21:01.316Z,6.67
2023-02-26T13:24:10.824Z,6.63
2023-02-26T13:27:15.894Z,8.10
2023-02-26T13:31:00.550Z,8.77
2023-02-26T13:34:11.626Z,9.20
2023-02-26T13:37:30.105Z,8.43
2023-02-26T13:41:00.266Z,11.88
2023-02-26T13:44:14.454Z,10.60
2023-02-26T13:47:50.751Z,11.43
2023-02-26T13:51:09.684Z,10.70
2023-02-26T13:54:14.379Z,10.43
2023-02-26T13:57:41.728Z,9.75
2023-02-26T14:00:57.159Z,11.10
2023-02-26T14:04:14.593Z,7.22
2023-02-26T14:07:17.188Z,6.68
2023-02-26T14:10:43.596Z,4.30
2023-02-26T14:14:13.638Z,4.25
2023-02-26T14:17:15.465Z,4.45
2023-02-26T14:20:30.548Z,3.70
2023-02-26T14:23:38.346Z,3.72
2023-02-26T14:26:45.990Z,4.77
2023-02-26T14:29:57.740Z,4.72
2023-02-26T14:33:06.031Z,2.85
2023-02-26T14:36:17.350Z,6.35
2023-02-26T14:39:41.410Z,5.25
2023-02-26T14:43:19.115Z,6.10
2023-02-26T14:46:23.333Z,5.93
2023-02-26T14:49:33.012Z,5.63
2023-02-26T14:53:08.226Z,4.53
2023-02-26T14:56:38.852Z,5.63
2023-02-26T15:00:12.662Z,5.57
2023-02-26T15:03:23.482Z,6.13
2023-02-26T15:07:08.961Z,6.65
2023-02-26T15:10:35.848Z,4.32
2023-02-26T15:14:08.927Z,4.75
2023-02-26T15:17:26.205Z,5.67
2023-02-26T15:20:44.010Z,5.70
2023-02-26T15:23:58.874Z,5.38
2023-02-26T15:27:06.710Z,5.65
2023-02-26T15:30:15.884Z,4.50
2023-02-26T15:33:21.596Z,6.00
2023-02-26T15:36:24.700Z,8.48
2023-02-26T15:39:28.400Z,6.18
2023-02-26T15:42:39.581Z,5.18
2023-02-26T15:45:45.220Z,6.50
2023-02-26T15:48:50.773Z,4.00
2023-02-26T15:51:54.283Z,6.43
2023-02-26T15:55:04.643Z,6.40
2023-02-26T15:58:10.546Z,4.95
2023-02-26T16:01:19.865Z,7.20
2023-02-26T16:04:23.084Z,7.43
2023-02-26T16:07:25.351Z,4.35
2023-02-26T16:10:32.411Z,5.85
2023-02-26T16:13:37.881Z,8.18
2023-02-26T16:16:46.733Z,4.30
2023-02-26T16:19:50.799Z,11.20
2023-02-26T16:23:07.684Z,4.20
2023-02-26T16:26:17.338Z,4.30
2023-02-26T16:29:24.983Z,4.63
2023-02-26T16:32:30.120Z,5.47
2023-02-26T16:35:39.054Z,4.67
2023-02-26T16:38:49.974Z,5.20
2023-02-26T16:42:16.525Z,6.53
2023-02-26T16:45:37.297Z,6.43
2023-02-26T16:48:52.200Z,5.25
2023-02-26T16:51:56.851Z,5.03
2023-02-26T16:55:04.329Z,6.28
2023-02-26T16:58:12.010Z,5.85
2023-02-26T17:01:18.225Z,5.50
2023-02-26T17:04:25.311Z,5.90
2023-02-26T17:07:35.535Z,6.33
2023-02-26T17:10:44.686Z,5.57
2023-02-26T17:14:03.126Z,6.07
2023-02-26T17:17:05.373Z,6.82
2023-02-26T17:20:08.530Z,8.73
2023-02-26T17:23:16.740Z,6.63
2023-02-26T17:26:18.993Z,7.15
2023-02-26T17:29:35.168Z,7.55
2023-02-26T17:32:37.762Z,6.85
2023-02-26T17:35:40.870Z,7.95
2023-02-26T17:38:47.300Z,7.07
2023-02-26T17:41:51.987Z,6.43
2023-02-26T17:44:56.771Z,9.77
2023-02-26T17:47:59.298Z,9.77
2023-02-26T17:51:01.904Z,7.07
2023-02-26T17:54:04.702Z,6.43
2023-02-26T17:57:07.625Z,9.57
2023-02-26T18:00:15.194Z,8.52
2023-02-26T18:03:20.060Z,8.15
2023-02-26T18:06:24.492Z,8.52
2023-02-26T18:09:26.613Z,8.73
2023-02-26T18:12:30.097Z,9.82
2023-02-26T18:15:33.650Z,8.32
2023-02-26T18:18:37.771Z,5.95
2023-02-26T18:21:41.704Z,6.93
2023-02-26T18:24:45.353Z,7.53
2023-02-26T18:27:56.515Z,7.22
2023-02-26T18:30:59.787Z,7.53
2023-02-26T18:34:04.382Z,7.15
2023-02-26T18:37:12.222Z,9.07
2023-02-26T18:40:18.735Z,8.70
2023-02-26T18:43:22.117Z,9.10
2023-02-26T18:46:25.387Z,7.80
2023-02-26T18:49:28.439Z,8.88
2023-02-26T18:52:31.421Z,7.65
2023-02-26T18:55:35.275Z,8.20
2023-02-26T18:58:40.525Z,8.05
2023-02-26T19:01:44.086Z,8.13
2023-02-26T19:04:49.415Z,10.65
2023-02-26T19:07:54.574Z,10.68
2023-02-26T19:10:57.926Z,10.07
2023-02-26T19:14:01.218Z,11.20
2023-02-26T19:17:03.310Z,11.73
2023-02-26T19:20:07.880Z,13.50
2023-02-26T19:23:10.474Z,13.45
2023-02-26T19:26:12.838Z,15.50
2023-02-26T19:29:17.530Z,12.57
2023-02-26T19:32:21.083Z,10.63
2023-02-26T19:35:29.404Z,14.45
2023-02-26T19:38:31.918Z,14.63
2023-02-26T19:41:34.276Z,10.50
2023-02-26T19:44:36.596Z,12.30
2023-02-26T19:47:40.564Z,12.02
2023-02-26T19:50:42.971Z,11.15
2023-02-26T19:53:46.412Z,10.70
2023-02-26T19:56:49.541Z,11.77
2023-02-26T19:59:54.911Z,10.10
2023-02-26T20:02:57.107Z,10.68
2023-02-26T20:05:59.592Z,10.57
2023-02-26T20:09:02.862Z,11.27
2023-02-26T20:12:06.488Z,9.80
2023-02-26T20:15:08.955Z,10.90
2023-02-26T20:18:13.986Z,10.23
2023-02-26T20:21:16.220Z,11.52
2023-02-26T20:24:20.204Z,11.98
2023-02-26T20:27:22.988Z,14.43
2023-02-26T20:30:25.145Z,12.98
2023-02-26T20:33:27.575Z,14.25
2023-02-26T20:36:29.854Z,12.52
2023-02-26T20:39:35.398Z,16.02
2023-02-26T20:42:38.671Z,18.47
2023-02-26T20:45:42.056Z,18.48
2023-02-26T20:48:44.924Z,16.48
2023-02-26T20:51:54.817Z,14.63
2023-02-26T20:54:57.232Z,13.70
2023-02-26T20:58:00.102Z,11.27
2023-02-26T21:01:02.905Z,13.00
2023-02-26T21:04:08.172Z,13.00
2023-02-26T21:07:13.143Z,15.57
2023-02-26T21:10:17.705Z,11.88
2023-02-26T21:13:20.249Z,14.83
2023-02-26T21:16:22.679Z,13.20
2023-02-26T21:19:25.617Z,13.48
2023-02-26T21:22:29.921Z,14.68
2023-02-26T21:25:32.450Z,14.82
2023-02-26T21:28:34.789Z,12.40
2023-02-26T21:31:40.120Z,9.90
2023-02-26T21:34:42.574Z,9.15
2023-02-26T21:37:46.085Z,4.78
2023-02-26T21:40:49.298Z,3.50
2023-02-26T21:43:51.361Z,3.33
2023-02-26T21:46:57.292Z,3.42
2023-02-26T21:49:59.127Z,4.70
2023-02-26T21:53:02.476Z,5.45
2023-02-26T21:56:04.453Z,4.05
2023-02-26T21:59:08.117Z,2.60
2023-02-26T22:02:12.248Z,3.78
2023-02-26T22:05:14.052Z,4.35
2023-02-26T22:08:16.133Z,3.80
2023-02-26T22:11:18.285Z,5.28
2023-02-26T22:14:20.226Z,7.53
2023-02-26T22:17:23.682Z,5.45
2023-02-26T22:20:26.898Z,6.82
2023-02-26T22:23:28.856Z,4.55
2023-02-26T22:26:31.083Z,5.72
2023-02-26T22:29:33.058Z,8.23
2023-02-26T22:32:35.314Z,5.45
2023-02-26T22:35:37.260Z,6.55
2023-02-26T22:38:41.363Z,5.18
2023-02-26T22:41:44.214Z,6.55
2023-02-26T22:44:46.376Z,3.90
2023-02-26T22:47:48.729Z,4.57
2023-02-26T22:50:51.311Z,4.00
2023-02-26T22:53:53.744Z,5.15
2023-02-26T22:56:56.111Z,5.70
2023-02-26T22:59:58.369Z,6.53
2023-02-26T23:03:00.523Z,4.55
2023-02-26T23:06:02.932Z,4.70
2023-02-26T23:09:05.995Z,4.03
2023-02-26T23:12:08.655Z,3.95
2023-02-26T23:15:11.612Z,3.83
2023-02-26T23:18:13.940Z,6.57
2023-02-26T23:21:16.509Z,5.53
2023-02-26T23:24:19.947Z,3.38
2023-02-26T23:27:22.583Z,5.05
2023-02-26T23:30:25.157Z,3.40
2023-02-26T23:33:27.212Z,4.78
2023-02-26T23:36:29.169Z,3.25
2023-02-26T23:39:32.025Z,3.67
2023-02-26T23:42:34.631Z,3.67
2023-02-26T23:45:37.027Z,7.13
2023-02-26T23:48:41.166Z,5.45
2023-02-26T23:51:45.305Z,3.75
2023-02-26T23:54:47.512Z,6.13
2023-02-26T23:57:49.622Z,3.15
